SJV896 WIII-WIMM
Flight info
| Callsign | SJV896 |
|---|---|
| Flight time | 1h 52m |
| Altitude | 34000 |
| Route | GOMEL T10 AKPER |
| Aircraft | A320/M-SDE3FGHIRWY/LB1 |
Departure
| Time | 2026-04-26 10:49 |
|---|---|
| Airport | Soekarno-Hatta International Airport (WIII) |
Arrival
| Time | 2026-04-26 12:41 |
|---|---|
| Airport | Kualanamu International Airport (WIMM) |
| Time | Latitude | Longitude | Altitude | Speed | Heading |
|---|---|---|---|---|---|
| 2026-04-26 10:21 | -6.12956 | 106.65996 | 38 ft | 0 kts | 330° |
| 2026-04-26 10:21 | -6.12955 | 106.65996 | 38 ft | 0 kts | 330° |
| 2026-04-26 10:39 | -6.12966 | 106.66002 | 38 ft | 4 kts | 328° |
| 2026-04-26 10:39 | -6.12988 | 106.66017 | 34 ft | 4 kts | 319° |
| 2026-04-26 10:39 | -6.13006 | 106.66037 | 37 ft | 4 kts | 287° |
| 2026-04-26 10:40 | -6.13006 | 106.66054 | 35 ft | 1 kts | 225° |
| 2026-04-26 10:40 | -6.13003 | 106.66057 | 35 ft | 0 kts | 225° |
| 2026-04-26 10:42 | -6.13005 | 106.66054 | 35 ft | 2 kts | 225° |
| 2026-04-26 10:43 | -6.13025 | 106.66033 | 36 ft | 6 kts | 231° |
| 2026-04-26 10:43 | -6.13052 | 106.65979 | 38 ft | 11 kts | 246° |
| 2026-04-26 10:43 | -6.13086 | 106.65896 | 36 ft | 15 kts | 247° |
| 2026-04-26 10:43 | -6.13168 | 106.65827 | 38 ft | 18 kts | 190° |
| 2026-04-26 10:44 | -6.13301 | 106.65811 | 38 ft | 20 kts | 180° |
| 2026-04-26 10:44 | -6.13431 | 106.65848 | 37 ft | 17 kts | 184° |
| 2026-04-26 10:44 | -6.13497 | 106.65755 | 37 ft | 18 kts | 249° |
| 2026-04-26 10:44 | -6.13561 | 106.65593 | 37 ft | 20 kts | 248° |
| 2026-04-26 10:45 | -6.13597 | 106.65502 | 38 ft | 21 kts | 248° |
| 2026-04-26 10:45 | -6.13654 | 106.65359 | 38 ft | 23 kts | 248° |
| 2026-04-26 10:45 | -6.13716 | 106.65206 | 36 ft | 24 kts | 248° |
| 2026-04-26 10:45 | -6.13780 | 106.65042 | 38 ft | 26 kts | 249° |
| 2026-04-26 10:46 | -6.13849 | 106.64870 | 36 ft | 27 kts | 248° |
| 2026-04-26 10:46 | -6.13922 | 106.64688 | 38 ft | 29 kts | 248° |
| 2026-04-26 10:46 | -6.13982 | 106.64540 | 38 ft | 23 kts | 248° |
| 2026-04-26 10:46 | -6.14043 | 106.64389 | 38 ft | 17 kts | 247° |
| 2026-04-26 10:47 | -6.14100 | 106.64293 | 39 ft | 13 kts | 207° |
| 2026-04-26 10:47 | -6.14183 | 106.64315 | 39 ft | 13 kts | 131° |
| 2026-04-26 10:47 | -6.14224 | 106.64374 | 40 ft | 10 kts | 128° |
| 2026-04-26 10:47 | -6.14224 | 106.64421 | 40 ft | 6 kts | 68° |
| 2026-04-26 10:48 | -6.14178 | 106.64538 | 38 ft | 44 kts | 68° |
| 2026-04-26 10:48 | -6.13979 | 106.65036 | 39 ft | 106 kts | 68° |
| 2026-04-26 10:48 | -6.13645 | 106.65877 | 38 ft | 151 kts | 68° |
| 2026-04-26 10:48 | -6.13232 | 106.66931 | 389 ft | 159 kts | 65° |
| 2026-04-26 10:49 | -6.12869 | 106.67976 | 944 ft | 159 kts | 71° |
| 2026-04-26 10:49 | -6.12510 | 106.69027 | 1513 ft | 160 kts | 69° |
| 2026-04-26 10:49 | -6.12082 | 106.70079 | 2012 ft | 169 kts | 67° |
| 2026-04-26 10:49 | -6.11597 | 106.71239 | 2244 ft | 191 kts | 68° |
| 2026-04-26 10:50 | -6.11111 | 106.72541 | 2423 ft | 213 kts | 80° |
| 2026-04-26 10:50 | -6.11391 | 106.74018 | 2857 ft | 226 kts | 123° |
| 2026-04-26 10:50 | -6.12628 | 106.75038 | 3584 ft | 231 kts | 148° |
| 2026-04-26 10:50 | -6.14083 | 106.75748 | 4304 ft | 236 kts | 159° |
| 2026-04-26 10:51 | -6.15723 | 106.76007 | 5021 ft | 244 kts | 180° |
| 2026-04-26 10:51 | -6.18763 | 106.74458 | 6410 ft | 261 kts | 231° |
| 2026-04-26 10:51 | -6.19573 | 106.72825 | 7086 ft | 265 kts | 257° |
| 2026-04-26 10:52 | -6.19926 | 106.70999 | 7788 ft | 267 kts | 259° |
| 2026-04-26 10:52 | -6.20291 | 106.69158 | 8495 ft | 270 kts | 258° |
| 2026-04-26 10:52 | -6.20686 | 106.67249 | 8875 ft | 289 kts | 258° |
| 2026-04-26 10:52 | -6.21098 | 106.65243 | 9425 ft | 299 kts | 260° |
| 2026-04-26 10:53 | -6.21098 | 106.63129 | 9887 ft | 307 kts | 284° |
| 2026-04-26 10:53 | -6.20263 | 106.61140 | 10185 ft | 320 kts | 308° |
| 2026-04-26 10:53 | -6.18601 | 106.59575 | 10322 ft | 337 kts | 327° |
| 2026-04-26 10:54 | -6.14622 | 106.56723 | 11035 ft | 359 kts | 327° |
| 2026-04-26 10:54 | -6.12582 | 106.55258 | 11593 ft | 363 kts | 327° |
| 2026-04-26 10:54 | -6.10549 | 106.53791 | 12122 ft | 366 kts | 326° |
| 2026-04-26 10:54 | -6.08447 | 106.52264 | 12674 ft | 370 kts | 326° |
| 2026-04-26 10:55 | -6.06382 | 106.50755 | 13188 ft | 374 kts | 326° |
| 2026-04-26 10:55 | -6.04238 | 106.49190 | 13724 ft | 378 kts | 326° |
| 2026-04-26 10:55 | -6.02129 | 106.47652 | 14204 ft | 380 kts | 326° |
| 2026-04-26 10:55 | -5.99983 | 106.46089 | 14701 ft | 383 kts | 326° |
| 2026-04-26 10:56 | -5.97790 | 106.44493 | 15184 ft | 385 kts | 326° |
| 2026-04-26 10:56 | -5.95642 | 106.42929 | 15666 ft | 387 kts | 326° |
| 2026-04-26 10:56 | -5.93455 | 106.41336 | 16141 ft | 390 kts | 326° |
| 2026-04-26 10:56 | -5.91254 | 106.39734 | 16638 ft | 392 kts | 326° |
| 2026-04-26 10:57 | -5.89039 | 106.38123 | 17118 ft | 394 kts | 326° |
| 2026-04-26 10:57 | -5.86810 | 106.36502 | 17585 ft | 397 kts | 326° |
| 2026-04-26 10:57 | -5.84563 | 106.34870 | 18067 ft | 399 kts | 326° |
| 2026-04-26 10:57 | -5.82306 | 106.33231 | 18474 ft | 402 kts | 326° |
| 2026-04-26 10:58 | -5.80034 | 106.31580 | 18877 ft | 405 kts | 326° |
| 2026-04-26 10:58 | -5.77747 | 106.29918 | 19273 ft | 407 kts | 326° |
| 2026-04-26 10:58 | -5.75448 | 106.28249 | 19665 ft | 410 kts | 326° |
| 2026-04-26 10:58 | -5.73137 | 106.26563 | 20057 ft | 412 kts | 325° |
| 2026-04-26 10:59 | -5.70844 | 106.24808 | 20446 ft | 415 kts | 323° |
| 2026-04-26 10:59 | -5.68574 | 106.22996 | 20844 ft | 418 kts | 322° |
| 2026-04-26 10:59 | -5.66307 | 106.21147 | 21233 ft | 421 kts | 322° |
| 2026-04-26 10:59 | -5.64032 | 106.19285 | 21606 ft | 423 kts | 322° |
| 2026-04-26 11:00 | -5.61742 | 106.17420 | 21970 ft | 426 kts | 322° |
| 2026-04-26 11:00 | -5.59424 | 106.15551 | 22323 ft | 428 kts | 323° |
| 2026-04-26 11:00 | -5.57111 | 106.13703 | 22672 ft | 431 kts | 323° |
| 2026-04-26 11:00 | -5.54728 | 106.11810 | 23019 ft | 433 kts | 323° |
| 2026-04-26 11:01 | -5.52358 | 106.09930 | 23364 ft | 436 kts | 323° |
| 2026-04-26 11:01 | -5.49975 | 106.08038 | 23665 ft | 438 kts | 323° |
| 2026-04-26 11:01 | -5.47579 | 106.06133 | 23936 ft | 440 kts | 323° |
| 2026-04-26 11:01 | -5.45175 | 106.04216 | 24221 ft | 442 kts | 322° |
| 2026-04-26 11:02 | -5.42791 | 106.02314 | 24504 ft | 444 kts | 322° |
| 2026-04-26 11:02 | -5.40365 | 106.00380 | 24780 ft | 446 kts | 322° |
| 2026-04-26 11:02 | -5.37897 | 105.98414 | 25075 ft | 448 kts | 322° |
| 2026-04-26 11:02 | -5.35450 | 105.96466 | 25355 ft | 450 kts | 322° |
| 2026-04-26 11:03 | -5.32992 | 105.94510 | 25638 ft | 452 kts | 322° |
| 2026-04-26 11:03 | -5.30523 | 105.92546 | 25910 ft | 454 kts | 322° |
| 2026-04-26 11:03 | -5.28043 | 105.90570 | 26180 ft | 456 kts | 322° |
| 2026-04-26 11:03 | -5.25583 | 105.88615 | 26443 ft | 458 kts | 322° |
| 2026-04-26 11:04 | -5.23082 | 105.86633 | 26709 ft | 459 kts | 322° |
| 2026-04-26 11:04 | -5.20570 | 105.84639 | 26980 ft | 461 kts | 322° |
| 2026-04-26 11:04 | -5.18045 | 105.82643 | 27242 ft | 463 kts | 323° |
| 2026-04-26 11:04 | -5.15462 | 105.80699 | 27534 ft | 465 kts | 324° |
| 2026-04-26 11:05 | -5.12823 | 105.78812 | 27803 ft | 467 kts | 325° |
| 2026-04-26 11:05 | -5.10148 | 105.76958 | 28079 ft | 468 kts | 326° |
| 2026-04-26 11:05 | -5.07454 | 105.75106 | 28345 ft | 470 kts | 326° |
| 2026-04-26 11:05 | -5.04758 | 105.73241 | 28615 ft | 472 kts | 325° |
| 2026-04-26 11:06 | -5.02066 | 105.71353 | 28953 ft | 472 kts | 325° |
| 2026-04-26 11:06 | -4.99386 | 105.69450 | 29381 ft | 471 kts | 324° |
| 2026-04-26 11:06 | -4.96729 | 105.67549 | 29793 ft | 469 kts | 324° |
| 2026-04-26 11:06 | -4.94073 | 105.65647 | 30165 ft | 468 kts | 324° |
| 2026-04-26 11:07 | -4.91432 | 105.63759 | 30519 ft | 466 kts | 324° |
| 2026-04-26 11:07 | -4.88786 | 105.61873 | 30889 ft | 465 kts | 325° |
| 2026-04-26 11:07 | -4.86155 | 105.60003 | 31265 ft | 463 kts | 325° |
| 2026-04-26 11:07 | -4.83532 | 105.58142 | 31645 ft | 461 kts | 325° |
| 2026-04-26 11:08 | -4.80915 | 105.56286 | 32036 ft | 459 kts | 325° |
| 2026-04-26 11:08 | -4.78311 | 105.54438 | 32429 ft | 458 kts | 326° |
| 2026-04-26 11:08 | -4.75721 | 105.52600 | 32832 ft | 456 kts | 326° |
| 2026-04-26 11:08 | -4.73139 | 105.50766 | 33211 ft | 454 kts | 326° |
| 2026-04-26 11:09 | -4.70562 | 105.48936 | 33605 ft | 453 kts | 326° |
| 2026-04-26 11:09 | -4.67992 | 105.47109 | 33800 ft | 453 kts | 326° |
| 2026-04-26 11:09 | -4.62786 | 105.43416 | 33826 ft | 461 kts | 326° |
| 2026-04-26 11:10 | -4.57543 | 105.39688 | 33828 ft | 463 kts | 326° |
| 2026-04-26 11:10 | -4.52290 | 105.35958 | 33824 ft | 463 kts | 326° |
| 2026-04-26 11:11 | -4.47036 | 105.32228 | 33823 ft | 463 kts | 326° |
| 2026-04-26 11:11 | -4.41787 | 105.28494 | 33822 ft | 463 kts | 326° |
| 2026-04-26 11:12 | -4.36571 | 105.24789 | 33820 ft | 463 kts | 326° |
| 2026-04-26 11:12 | -4.31310 | 105.21059 | 33821 ft | 463 kts | 326° |
| 2026-04-26 11:13 | -4.26040 | 105.17330 | 33820 ft | 464 kts | 326° |
| 2026-04-26 11:13 | -4.20769 | 105.13590 | 33821 ft | 465 kts | 326° |
| 2026-04-26 11:14 | -4.15488 | 105.09842 | 33829 ft | 465 kts | 326° |
| 2026-04-26 11:14 | -4.11063 | 105.06707 | 33827 ft | 465 kts | 325° |
| 2026-04-26 11:15 | -4.05444 | 105.01697 | 33826 ft | 466 kts | 318° |
| 2026-04-26 11:15 | -4.00706 | 104.97268 | 33819 ft | 466 kts | 318° |
| 2026-04-26 11:16 | -3.95959 | 104.92830 | 33821 ft | 467 kts | 318° |
| 2026-04-26 11:16 | -3.91218 | 104.88392 | 33820 ft | 467 kts | 318° |
| 2026-04-26 11:17 | -3.86466 | 104.83949 | 33821 ft | 467 kts | 318° |
| 2026-04-26 11:17 | -3.81708 | 104.79509 | 33824 ft | 468 kts | 318° |
| 2026-04-26 11:18 | -3.76950 | 104.75053 | 33829 ft | 468 kts | 317° |
| 2026-04-26 11:18 | -3.72191 | 104.70595 | 33829 ft | 469 kts | 318° |
| 2026-04-26 11:19 | -3.67428 | 104.66141 | 33843 ft | 469 kts | 317° |
| 2026-04-26 11:19 | -3.62664 | 104.61683 | 33838 ft | 469 kts | 317° |
| 2026-04-26 11:20 | -3.58705 | 104.57981 | 33836 ft | 469 kts | 317° |
| 2026-04-26 11:20 | -3.53131 | 104.52769 | 33836 ft | 469 kts | 317° |
| 2026-04-26 11:21 | -3.48366 | 104.48319 | 33836 ft | 469 kts | 317° |
| 2026-04-26 11:21 | -3.43595 | 104.43868 | 33838 ft | 469 kts | 317° |
| 2026-04-26 11:22 | -3.38860 | 104.39444 | 33839 ft | 469 kts | 317° |
| 2026-04-26 11:22 | -3.34095 | 104.34989 | 33841 ft | 469 kts | 317° |
| 2026-04-26 11:23 | -3.29330 | 104.30540 | 33846 ft | 468 kts | 317° |
| 2026-04-26 11:23 | -3.24565 | 104.26095 | 33844 ft | 468 kts | 317° |
| 2026-04-26 11:24 | -3.19804 | 104.21654 | 33847 ft | 468 kts | 318° |
| 2026-04-26 11:24 | -3.15046 | 104.17221 | 33850 ft | 467 kts | 318° |
| 2026-04-26 11:25 | -3.10290 | 104.12781 | 33850 ft | 467 kts | 317° |
| 2026-04-26 11:25 | -3.05537 | 104.08337 | 33848 ft | 467 kts | 318° |
| 2026-04-26 11:26 | -3.00787 | 104.03901 | 33854 ft | 467 kts | 317° |
| 2026-04-26 11:26 | -2.96032 | 103.99468 | 33850 ft | 467 kts | 318° |
| 2026-04-26 11:27 | -2.91311 | 103.95075 | 33850 ft | 467 kts | 318° |
| 2026-04-26 11:27 | -2.86563 | 103.90651 | 33854 ft | 467 kts | 318° |
| 2026-04-26 11:28 | -2.81820 | 103.86212 | 33858 ft | 467 kts | 317° |
| 2026-04-26 11:28 | -2.77082 | 103.81788 | 33861 ft | 467 kts | 318° |
| 2026-04-26 11:29 | -2.72317 | 103.77359 | 33859 ft | 467 kts | 318° |
| 2026-04-26 11:29 | -2.67569 | 103.72942 | 33863 ft | 466 kts | 318° |
| 2026-04-26 11:30 | -2.63602 | 103.69234 | 33865 ft | 466 kts | 317° |
| 2026-04-26 11:30 | -2.58898 | 103.64843 | 33863 ft | 466 kts | 318° |
| 2026-04-26 11:31 | -2.53355 | 103.59676 | 33859 ft | 466 kts | 318° |
| 2026-04-26 11:31 | -2.49420 | 103.56004 | 33867 ft | 465 kts | 318° |
| 2026-04-26 11:32 | -2.44685 | 103.51591 | 33866 ft | 465 kts | 318° |
| 2026-04-26 11:32 | -2.39951 | 103.47181 | 33863 ft | 465 kts | 318° |
| 2026-04-26 11:33 | -2.35218 | 103.42769 | 33861 ft | 465 kts | 318° |
| 2026-04-26 11:33 | -2.30484 | 103.38359 | 33863 ft | 465 kts | 318° |
| 2026-04-26 11:34 | -2.25757 | 103.33945 | 33861 ft | 465 kts | 318° |
| 2026-04-26 11:34 | -2.21033 | 103.29530 | 33858 ft | 465 kts | 318° |
| 2026-04-26 11:35 | -2.16311 | 103.25122 | 33860 ft | 464 kts | 318° |
| 2026-04-26 11:35 | -2.11595 | 103.20712 | 33858 ft | 464 kts | 318° |
| 2026-04-26 11:36 | -2.06873 | 103.16300 | 33858 ft | 464 kts | 318° |
| 2026-04-26 11:36 | -2.02154 | 103.11893 | 33857 ft | 464 kts | 318° |
| 2026-04-26 11:37 | -1.97434 | 103.07483 | 33859 ft | 465 kts | 318° |
| 2026-04-26 11:37 | -1.92711 | 103.03071 | 33864 ft | 465 kts | 318° |
| 2026-04-26 11:38 | -1.87981 | 102.98659 | 33866 ft | 465 kts | 318° |
| 2026-04-26 11:38 | -1.83256 | 102.94250 | 33865 ft | 465 kts | 318° |
| 2026-04-26 11:39 | -1.78527 | 102.89834 | 33867 ft | 465 kts | 318° |
| 2026-04-26 11:39 | -1.73804 | 102.85425 | 33870 ft | 465 kts | 318° |
| 2026-04-26 11:40 | -1.69073 | 102.81012 | 33876 ft | 465 kts | 318° |
| 2026-04-26 11:40 | -1.64346 | 102.76599 | 33872 ft | 465 kts | 318° |
| 2026-04-26 11:42 | -1.45425 | 102.58935 | 33876 ft | 466 kts | 318° |
| 2026-04-26 11:43 | -1.40726 | 102.54547 | 33879 ft | 466 kts | 318° |
| 2026-04-26 11:43 | -1.35984 | 102.50127 | 33877 ft | 466 kts | 318° |
| 2026-04-26 11:44 | -1.31245 | 102.45709 | 33878 ft | 466 kts | 318° |
| 2026-04-26 11:44 | -1.26512 | 102.41278 | 33873 ft | 466 kts | 317° |
| 2026-04-26 11:45 | -1.21776 | 102.36845 | 33874 ft | 467 kts | 318° |
| 2026-04-26 11:45 | -1.17024 | 102.32407 | 33870 ft | 467 kts | 318° |
| 2026-04-26 11:46 | -1.12268 | 102.27975 | 33864 ft | 468 kts | 318° |
| 2026-04-26 11:46 | -1.07504 | 102.23531 | 33862 ft | 469 kts | 318° |
| 2026-04-26 11:47 | -1.02739 | 102.19084 | 33862 ft | 469 kts | 318° |
| 2026-04-26 11:47 | -0.97966 | 102.14621 | 33854 ft | 470 kts | 318° |
| 2026-04-26 11:48 | -0.93190 | 102.10160 | 33858 ft | 470 kts | 318° |
| 2026-04-26 11:48 | -0.88402 | 102.05696 | 33856 ft | 471 kts | 318° |
| 2026-04-26 11:49 | -0.83615 | 102.01229 | 33856 ft | 471 kts | 318° |
| 2026-04-26 11:49 | -0.78837 | 101.96765 | 33859 ft | 470 kts | 318° |
| 2026-04-26 11:50 | -0.74084 | 101.92326 | 33856 ft | 470 kts | 318° |
| 2026-04-26 11:50 | -0.69309 | 101.87862 | 33854 ft | 470 kts | 318° |
| 2026-04-26 11:51 | -0.64528 | 101.83401 | 33855 ft | 470 kts | 318° |
| 2026-04-26 11:51 | -0.59741 | 101.78944 | 33852 ft | 470 kts | 318° |
| 2026-04-26 11:52 | -0.55783 | 101.75254 | 33851 ft | 470 kts | 318° |
| 2026-04-26 11:52 | -0.50194 | 101.70030 | 33852 ft | 471 kts | 318° |
| 2026-04-26 11:53 | -0.45405 | 101.65568 | 33851 ft | 471 kts | 318° |
| 2026-04-26 11:54 | -0.38228 | 101.58870 | 33848 ft | 471 kts | 318° |
| 2026-04-26 11:54 | -0.33446 | 101.54404 | 33848 ft | 471 kts | 318° |
| 2026-04-26 11:55 | -0.28661 | 101.49935 | 33846 ft | 471 kts | 318° |
| 2026-04-26 11:55 | -0.23870 | 101.45465 | 33844 ft | 471 kts | 318° |
| 2026-04-26 11:56 | -0.19080 | 101.40997 | 33848 ft | 471 kts | 318° |
| 2026-04-26 11:56 | -0.14295 | 101.36530 | 33845 ft | 471 kts | 318° |
| 2026-04-26 11:57 | -0.09498 | 101.32056 | 33841 ft | 471 kts | 318° |
| 2026-04-26 11:57 | -0.04705 | 101.27582 | 33844 ft | 472 kts | 318° |
| 2026-04-26 11:58 | 0.00092 | 101.23109 | 33843 ft | 472 kts | 318° |
| 2026-04-26 11:58 | 0.04897 | 101.18632 | 33846 ft | 472 kts | 318° |
| 2026-04-26 11:59 | 0.09697 | 101.14155 | 33847 ft | 472 kts | 318° |
| 2026-04-26 11:59 | 0.14499 | 101.09671 | 33852 ft | 472 kts | 318° |
| 2026-04-26 12:00 | 0.19265 | 101.05219 | 33847 ft | 472 kts | 318° |
| 2026-04-26 12:00 | 0.24094 | 101.00713 | 33851 ft | 472 kts | 318° |
| 2026-04-26 12:01 | 0.28856 | 100.96267 | 33862 ft | 471 kts | 318° |
| 2026-04-26 12:01 | 0.33651 | 100.91795 | 33859 ft | 471 kts | 318° |
| 2026-04-26 12:02 | 0.38442 | 100.87327 | 33861 ft | 471 kts | 318° |
| 2026-04-26 12:02 | 0.43230 | 100.82851 | 33859 ft | 471 kts | 318° |
| 2026-04-26 12:03 | 0.48014 | 100.78386 | 33861 ft | 471 kts | 318° |
| 2026-04-26 12:03 | 0.52797 | 100.73920 | 33861 ft | 470 kts | 318° |
| 2026-04-26 12:04 | 0.57578 | 100.69464 | 33860 ft | 470 kts | 318° |
| 2026-04-26 12:04 | 0.62358 | 100.65009 | 33859 ft | 470 kts | 318° |
| 2026-04-26 12:05 | 0.67135 | 100.60551 | 33856 ft | 470 kts | 318° |
| 2026-04-26 12:05 | 0.71911 | 100.56094 | 33854 ft | 470 kts | 318° |
| 2026-04-26 12:06 | 0.76689 | 100.51628 | 33856 ft | 470 kts | 318° |
| 2026-04-26 12:06 | 0.81469 | 100.47161 | 33855 ft | 470 kts | 318° |
| 2026-04-26 12:07 | 0.86253 | 100.42699 | 33850 ft | 471 kts | 318° |
| 2026-04-26 12:07 | 0.91043 | 100.38233 | 33862 ft | 471 kts | 318° |
| 2026-04-26 12:08 | 0.95836 | 100.33759 | 33859 ft | 471 kts | 318° |
| 2026-04-26 12:08 | 1.00628 | 100.29281 | 33863 ft | 471 kts | 318° |
| 2026-04-26 12:09 | 1.05418 | 100.24808 | 33864 ft | 472 kts | 318° |
| 2026-04-26 12:09 | 1.10208 | 100.20321 | 33864 ft | 472 kts | 318° |
| 2026-04-26 12:10 | 1.14969 | 100.15869 | 33863 ft | 472 kts | 318° |
| 2026-04-26 12:10 | 1.19770 | 100.11396 | 33865 ft | 472 kts | 318° |
| 2026-04-26 12:11 | 1.24567 | 100.06920 | 33864 ft | 472 kts | 318° |
| 2026-04-26 12:11 | 1.29366 | 100.02438 | 33864 ft | 472 kts | 318° |
| 2026-04-26 12:12 | 1.34167 | 99.97956 | 33866 ft | 472 kts | 318° |
| 2026-04-26 12:12 | 1.38964 | 99.93484 | 33866 ft | 472 kts | 318° |
| 2026-04-26 12:13 | 1.43760 | 99.89009 | 33872 ft | 471 kts | 318° |
| 2026-04-26 12:13 | 1.48550 | 99.84530 | 33876 ft | 471 kts | 318° |
| 2026-04-26 12:14 | 1.53329 | 99.80052 | 33881 ft | 471 kts | 317° |
| 2026-04-26 12:14 | 1.58122 | 99.75577 | 33885 ft | 471 kts | 318° |
| 2026-04-26 12:15 | 1.62918 | 99.71108 | 33890 ft | 471 kts | 318° |
| 2026-04-26 12:15 | 1.67675 | 99.66662 | 33891 ft | 471 kts | 318° |
| 2026-04-26 12:16 | 1.72500 | 99.62153 | 33903 ft | 472 kts | 317° |
| 2026-04-26 12:16 | 1.77401 | 99.57813 | 33907 ft | 470 kts | 326° |
| 2026-04-26 12:17 | 1.82104 | 99.55123 | 33913 ft | 468 kts | 334° |
| 2026-04-26 12:17 | 1.87902 | 99.52140 | 33915 ft | 469 kts | 334° |
| 2026-04-26 12:18 | 1.94655 | 99.48662 | 33479 ft | 470 kts | 334° |
| 2026-04-26 12:18 | 1.96623 | 99.47647 | 32985 ft | 472 kts | 334° |
| 2026-04-26 12:18 | 2.00544 | 99.45627 | 31606 ft | 483 kts | 334° |
| 2026-04-26 12:18 | 2.03521 | 99.44091 | 31105 ft | 479 kts | 334° |
| 2026-04-26 12:19 | 2.05522 | 99.43060 | 30714 ft | 477 kts | 334° |
| 2026-04-26 12:19 | 2.08464 | 99.41544 | 30100 ft | 475 kts | 334° |
| 2026-04-26 12:19 | 2.11394 | 99.40034 | 29428 ft | 473 kts | 335° |
| 2026-04-26 12:19 | 2.14265 | 99.38554 | 28840 ft | 468 kts | 335° |
| 2026-04-26 12:20 | 2.17185 | 99.37047 | 28226 ft | 464 kts | 335° |
| 2026-04-26 12:20 | 2.20041 | 99.35572 | 27651 ft | 459 kts | 335° |
| 2026-04-26 12:20 | 2.22867 | 99.34109 | 27055 ft | 456 kts | 335° |
| 2026-04-26 12:20 | 2.25675 | 99.32656 | 26473 ft | 453 kts | 335° |
| 2026-04-26 12:21 | 2.28459 | 99.31219 | 25903 ft | 449 kts | 335° |
| 2026-04-26 12:21 | 2.31194 | 99.29810 | 25353 ft | 446 kts | 335° |
| 2026-04-26 12:21 | 2.33940 | 99.28396 | 24802 ft | 443 kts | 335° |
| 2026-04-26 12:21 | 2.36674 | 99.26990 | 24269 ft | 439 kts | 335° |
| 2026-04-26 12:22 | 2.39374 | 99.25601 | 23763 ft | 435 kts | 335° |
| 2026-04-26 12:22 | 2.42051 | 99.24228 | 23219 ft | 428 kts | 337° |
| 2026-04-26 12:22 | 2.44803 | 99.23185 | 22730 ft | 419 kts | 348° |
| 2026-04-26 12:22 | 2.47629 | 99.22584 | 22253 ft | 413 kts | 352° |
| 2026-04-26 12:23 | 2.50434 | 99.22036 | 21782 ft | 409 kts | 352° |
| 2026-04-26 12:23 | 2.53215 | 99.21492 | 21320 ft | 406 kts | 352° |
| 2026-04-26 12:23 | 2.55971 | 99.20950 | 20860 ft | 402 kts | 352° |
| 2026-04-26 12:23 | 2.58707 | 99.20412 | 20396 ft | 399 kts | 351° |
| 2026-04-26 12:24 | 2.61416 | 99.19878 | 19948 ft | 395 kts | 351° |
| 2026-04-26 12:24 | 2.64104 | 99.19349 | 19488 ft | 392 kts | 351° |
| 2026-04-26 12:24 | 2.66773 | 99.18822 | 19049 ft | 389 kts | 351° |
| 2026-04-26 12:25 | 2.72046 | 99.17789 | 18160 ft | 383 kts | 351° |
| 2026-04-26 12:25 | 2.74644 | 99.17280 | 17684 ft | 379 kts | 351° |
| 2026-04-26 12:25 | 2.77224 | 99.16773 | 17250 ft | 376 kts | 351° |
| 2026-04-26 12:25 | 2.79773 | 99.16272 | 16820 ft | 373 kts | 351° |
| 2026-04-26 12:26 | 2.82312 | 99.15774 | 16393 ft | 370 kts | 351° |
| 2026-04-26 12:26 | 2.84829 | 99.15279 | 15975 ft | 367 kts | 351° |
| 2026-04-26 12:26 | 2.87323 | 99.14788 | 15564 ft | 365 kts | 351° |
| 2026-04-26 12:26 | 2.89806 | 99.14300 | 15138 ft | 362 kts | 351° |
| 2026-04-26 12:27 | 2.92269 | 99.13815 | 14728 ft | 359 kts | 351° |
| 2026-04-26 12:27 | 2.94709 | 99.13330 | 14321 ft | 357 kts | 349° |
| 2026-04-26 12:27 | 2.97059 | 99.12540 | 13903 ft | 357 kts | 336° |
| 2026-04-26 12:27 | 2.99175 | 99.11243 | 13481 ft | 357 kts | 323° |
| 2026-04-26 12:28 | 3.00980 | 99.09548 | 13064 ft | 356 kts | 316° |
| 2026-04-26 12:28 | 3.02722 | 99.07797 | 12675 ft | 354 kts | 316° |
| 2026-04-26 12:28 | 3.04461 | 99.06063 | 12255 ft | 352 kts | 316° |
| 2026-04-26 12:28 | 3.06192 | 99.04349 | 11854 ft | 349 kts | 317° |
| 2026-04-26 12:29 | 3.07917 | 99.02643 | 11454 ft | 347 kts | 317° |
| 2026-04-26 12:29 | 3.09626 | 99.00949 | 11089 ft | 344 kts | 316° |
| 2026-04-26 12:29 | 3.13015 | 98.97579 | 10464 ft | 342 kts | 316° |
| 2026-04-26 12:30 | 3.14672 | 98.95927 | 10335 ft | 331 kts | 316° |
| 2026-04-26 12:30 | 3.16276 | 98.94329 | 10212 ft | 320 kts | 316° |
| 2026-04-26 12:30 | 3.17833 | 98.92783 | 10090 ft | 311 kts | 316° |
| 2026-04-26 12:31 | 3.20870 | 98.89763 | 9497 ft | 306 kts | 316° |
| 2026-04-26 12:31 | 3.22381 | 98.88258 | 9154 ft | 305 kts | 316° |
| 2026-04-26 12:31 | 3.23875 | 98.86768 | 8847 ft | 303 kts | 316° |
| 2026-04-26 12:31 | 3.25366 | 98.85285 | 8496 ft | 302 kts | 316° |
| 2026-04-26 12:32 | 3.26854 | 98.83804 | 8173 ft | 301 kts | 316° |
| 2026-04-26 12:32 | 3.28333 | 98.82334 | 7869 ft | 299 kts | 316° |
| 2026-04-26 12:32 | 3.31271 | 98.79412 | 7140 ft | 295 kts | 316° |
| 2026-04-26 12:33 | 3.32734 | 98.77989 | 6609 ft | 291 kts | 317° |
| 2026-04-26 12:33 | 3.34207 | 98.76580 | 5909 ft | 294 kts | 317° |
| 2026-04-26 12:33 | 3.35657 | 98.75204 | 5428 ft | 288 kts | 317° |
| 2026-04-26 12:33 | 3.37114 | 98.73822 | 5017 ft | 281 kts | 317° |
| 2026-04-26 12:34 | 3.38491 | 98.72518 | 4654 ft | 273 kts | 317° |
| 2026-04-26 12:34 | 3.39853 | 98.71224 | 4273 ft | 267 kts | 317° |
| 2026-04-26 12:34 | 3.41200 | 98.69967 | 3912 ft | 261 kts | 322° |
| 2026-04-26 12:34 | 3.42740 | 98.69178 | 3823 ft | 241 kts | 347° |
| 2026-04-26 12:35 | 3.44345 | 98.69046 | 3756 ft | 229 kts | 9° |
| 2026-04-26 12:35 | 3.45861 | 98.69492 | 3576 ft | 224 kts | 30° |
| 2026-04-26 12:35 | 3.47045 | 98.70375 | 3499 ft | 203 kts | 47° |
| 2026-04-26 12:35 | 3.48023 | 98.71352 | 3436 ft | 198 kts | 45° |
| 2026-04-26 12:36 | 3.48990 | 98.72311 | 3316 ft | 195 kts | 48° |
| 2026-04-26 12:36 | 3.49949 | 98.73267 | 3248 ft | 193 kts | 47° |
| 2026-04-26 12:36 | 3.50908 | 98.74221 | 3060 ft | 194 kts | 47° |
| 2026-04-26 12:36 | 3.51863 | 98.75172 | 2828 ft | 193 kts | 48° |
| 2026-04-26 12:37 | 3.52814 | 98.76120 | 2606 ft | 195 kts | 46° |
| 2026-04-26 12:37 | 3.53792 | 98.77094 | 2350 ft | 200 kts | 46° |
| 2026-04-26 12:37 | 3.54770 | 98.78067 | 2087 ft | 195 kts | 46° |
| 2026-04-26 12:37 | 3.55710 | 98.79002 | 1870 ft | 186 kts | 49° |
| 2026-04-26 12:38 | 3.56605 | 98.79896 | 1638 ft | 174 kts | 49° |
| 2026-04-26 12:38 | 3.57430 | 98.80716 | 1398 ft | 162 kts | 47° |
| 2026-04-26 12:38 | 3.58201 | 98.81483 | 1197 ft | 152 kts | 47° |
| 2026-04-26 12:38 | 3.58929 | 98.82208 | 1015 ft | 145 kts | 47° |
| 2026-04-26 12:39 | 3.59640 | 98.82918 | 841 ft | 142 kts | 47° |
| 2026-04-26 12:39 | 3.60341 | 98.83617 | 677 ft | 142 kts | 45° |
| 2026-04-26 12:39 | 3.61028 | 98.84299 | 511 ft | 139 kts | 45° |
| 2026-04-26 12:39 | 3.61705 | 98.84983 | 307 ft | 136 kts | 46° |
| 2026-04-26 12:40 | 3.62377 | 98.85657 | 134 ft | 137 kts | 47° |
| 2026-04-26 12:40 | 3.63045 | 98.86307 | 39 ft | 124 kts | 45° |
| 2026-04-26 12:40 | 3.63531 | 98.86807 | 36 ft | 76 kts | 45° |
| 2026-04-26 12:40 | 3.63813 | 98.87086 | 37 ft | 50 kts | 45° |
| 2026-04-26 12:41 | 3.64015 | 98.87294 | 35 ft | 38 kts | 51° |
| 2026-04-26 12:41 | 3.64095 | 98.87448 | 35 ft | 23 kts | 72° |
| 2026-04-26 12:41 | 3.64133 | 98.87594 | 37 ft | 19 kts | 71° |
| 2026-04-26 12:41 | 3.64197 | 98.87721 | 38 ft | 21 kts | 50° |
| 2026-04-26 12:42 | 3.64286 | 98.87813 | 39 ft | 12 kts | 46° |
| 2026-04-26 12:42 | 3.64274 | 98.87885 | 40 ft | 13 kts | 125° |
| 2026-04-26 12:42 | 3.64298 | 98.87967 | 40 ft | 14 kts | 83° |
| 2026-04-26 12:42 | 3.64236 | 98.88043 | 40 ft | 16 kts | 135° |
| 2026-04-26 12:43 | 3.64153 | 98.88126 | 40 ft | 18 kts | 135° |
| 2026-04-26 12:43 | 3.64059 | 98.88222 | 40 ft | 21 kts | 134° |
| 2026-04-26 12:43 | 3.63951 | 98.88328 | 40 ft | 23 kts | 134° |
| 2026-04-26 12:43 | 3.63838 | 98.88443 | 40 ft | 19 kts | 135° |
| 2026-04-26 12:44 | 3.63736 | 98.88407 | 40 ft | 18 kts | 224° |
| 2026-04-26 12:44 | 3.63641 | 98.88312 | 40 ft | 21 kts | 225° |
| 2026-04-26 12:44 | 3.63611 | 98.88232 | 40 ft | 7 kts | 278° |
| 2026-04-26 12:44 | 3.63581 | 98.88190 | 40 ft | 9 kts | 224° |
| 2026-04-26 12:45 | 3.63556 | 98.88165 | 40 ft | 0 kts | 225° |